Time,TemperatureF,DewpointF,PressureIn,WindDirection,WindDirectionDegrees,WindSpeedMPH,WindSpeedGustMPH,Humidity,HourlyPrecipIn,Conditions,Clouds,dailyrainin,SoftwareType,DateUTC
2013-03-21 00:00:00,27.2,20.6,29.74,South,175,10.0,22.0,76,0.00,,,0.00,Wunderground v.1.15,2013-03-21 03:00:00,
2013-03-21 00:10:00,27.3,20.7,29.74,South,172,11.0,11.0,76,0.00,,,0.00,Wunderground v.1.15,2013-03-21 03:10:00,
2013-03-21 00:20:00,27.1,20.5,29.75,SW,219,8.0,22.0,76,0.00,,,0.00,Wunderground v.1.15,2013-03-21 03:20:00,
2013-03-21 00:30:00,27.2,20.3,29.75,South,176,9.0,22.0,75,0.00,,,0.00,Wunderground v.1.15,2013-03-21 03:30:00,
2013-03-21 00:40:00,27.1,20.2,29.76,SW,214,8.0,22.0,75,0.00,,,0.00,Wunderground v.1.15,2013-03-21 03:40:00,
2013-03-21 00:50:00,27.0,20.1,29.76,SSW,203,8.0,8.0,75,0.00,,,0.00,Wunderground v.1.15,2013-03-21 03:50:00,
2013-03-21 01:00:00,26.9,20.3,29.76,SSW,208,8.0,8.0,76,0.00,,,0.00,Wunderground v.1.15,2013-03-21 04:00:00,
2013-03-21 01:10:00,26.9,20.3,29.77,South,191,8.0,8.0,76,0.00,,,0.00,Wunderground v.1.15,2013-03-21 04:10:00,
2013-03-21 01:20:00,26.9,20.3,29.77,SSW,207,7.0,22.0,76,0.00,,,0.00,Wunderground v.1.15,2013-03-21 04:20:00,
2013-03-21 01:30:00,26.9,20.7,29.78,SSW,212,8.0,8.0,77,0.00,,,0.00,Wunderground v.1.15,2013-03-21 04:30:00,
2013-03-21 01:40:00,27.1,20.8,29.79,South,180,8.0,22.0,77,0.00,,,0.00,Wunderground v.1.15,2013-03-21 04:40:00,
2013-03-21 01:50:00,27.5,20.9,29.79,SSE,150,9.0,22.0,76,0.00,,,0.00,Wunderground v.1.15,2013-03-21 04:50:00,
2013-03-21 02:00:00,27.3,20.7,29.80,SSW,203,9.0,9.0,76,0.00,,,0.00,Wunderground v.1.15,2013-03-21 05:00:00,
2013-03-21 02:10:00,27.5,20.9,29.80,SSW,204,10.0,22.0,76,0.00,,,0.00,Wunderground v.1.15,2013-03-21 05:10:00,
2013-03-21 02:20:00,27.5,20.6,29.81,SSW,194,10.0,10.0,75,0.00,,,0.00,Wunderground v.1.15,2013-03-21 05:20:00,
2013-03-21 02:30:00,27.5,20.3,29.81,SSW,205,9.0,9.0,74,0.00,,,0.00,Wunderground v.1.15,2013-03-21 05:30:00,
2013-03-21 02:40:00,27.3,19.8,29.81,SSW,201,9.0,9.0,73,0.00,,,0.00,Wunderground v.1.15,2013-03-21 05:40:00,
2013-03-21 02:50:00,27.3,19.8,29.82,South,191,9.0,22.0,73,0.00,,,0.00,Wunderground v.1.15,2013-03-21 05:50:00,
2013-03-21 03:00:00,27.3,19.8,29.82,SSW,209,10.0,10.0,73,0.00,,,0.00,Wunderground v.1.15,2013-03-21 06:00:00,
2013-03-21 03:10:00,27.2,20.0,29.82,SSW,198,9.0,22.0,74,0.00,,,0.00,Wunderground v.1.15,2013-03-21 06:10:00,
2013-03-21 03:20:00,27.3,19.8,29.83,SSE,155,10.0,10.0,73,0.00,,,0.00,Wunderground v.1.15,2013-03-21 06:20:00,
2013-03-21 03:30:00,27.2,19.0,29.83,SSW,197,10.0,22.0,71,0.00,,,0.00,Wunderground v.1.15,2013-03-21 06:30:00,
2013-03-21 03:40:00,27.0,18.5,29.84,South,173,9.0,9.0,70,0.00,,,0.00,Wunderground v.1.15,2013-03-21 06:40:00,
2013-03-21 03:50:00,26.9,18.4,29.84,South,181,8.0,22.0,70,0.00,,,0.00,Wunderground v.1.15,2013-03-21 06:50:00,
2013-03-21 04:00:00,26.8,18.3,29.84,SSW,195,9.0,9.0,70,0.00,,,0.00,Wunderground v.1.15,2013-03-21 07:00:00,
2013-03-21 04:10:00,26.6,18.8,29.85,South,180,7.0,22.0,72,0.00,,,0.00,Wunderground v.1.15,2013-03-21 07:10:00,
2013-03-21 04:20:00,26.4,18.9,29.86,SSE,167,7.0,7.0,73,0.00,,,0.00,Wunderground v.1.15,2013-03-21 07:20:00,
2013-03-21 04:30:00,25.9,18.7,29.87,SSE,149,5.0,22.0,74,0.00,,,0.00,Wunderground v.1.15,2013-03-21 07:30:00,
2013-03-21 04:40:00,25.7,19.2,29.88,SSE,161,5.0,5.0,76,0.00,,,0.00,Wunderground v.1.15,2013-03-21 07:40:00,
2013-03-21 04:50:00,25.3,19.7,29.88,SSE,165,4.0,22.0,79,0.00,,,0.00,Wunderground v.1.15,2013-03-21 07:50:00,
2013-03-21 05:00:00,25.2,20.5,29.89,SSE,162,5.0,22.0,82,0.00,,,0.00,Wunderground v.1.15,2013-03-21 08:00:00,
2013-03-21 05:10:00,25.3,21.1,29.89,SSE,158,5.0,5.0,84,0.00,,,0.00,Wunderground v.1.15,2013-03-21 08:10:00,
2013-03-21 05:20:00,25.3,21.4,29.89,South,177,4.0,22.0,85,0.00,,,0.00,Wunderground v.1.15,2013-03-21 08:20:00,
2013-03-21 05:30:00,25.3,21.4,29.90,SE,141,4.0,22.0,85,0.00,,,0.00,Wunderground v.1.15,2013-03-21 08:30:00,
2013-03-21 05:40:00,25.5,21.9,29.90,SSE,159,5.0,22.0,86,0.00,,,0.00,Wunderground v.1.15,2013-03-21 08:40:00,
2013-03-21 05:50:00,25.6,22.5,29.90,SSE,163,6.0,22.0,88,0.00,,,0.00,Wunderground v.1.15,2013-03-21 08:50:00,
2013-03-21 06:00:00,26.0,23.2,29.91,SSW,197,6.0,22.0,89,0.00,,,0.00,Wunderground v.1.15,2013-03-21 09:00:00,
2013-03-21 06:10:00,26.1,23.3,29.91,ESE,120,5.0,22.0,89,0.00,,,0.00,Wunderground v.1.15,2013-03-21 09:10:00,
2013-03-21 06:20:00,26.2,23.4,29.91,SSE,162,5.0,5.0,89,0.00,,,0.00,Wunderground v.1.15,2013-03-21 09:20:00,
2013-03-21 06:30:00,26.2,23.4,29.92,SSE,168,5.0,22.0,89,0.00,,,0.00,Wunderground v.1.15,2013-03-21 09:30:00,
2013-03-21 06:40:00,26.3,23.5,29.92,SE,142,5.0,5.0,89,0.00,,,0.00,Wunderground v.1.15,2013-03-21 09:40:00,
2013-03-21 06:50:00,26.4,23.9,29.92,SSE,147,5.0,22.0,90,0.00,,,0.00,Wunderground v.1.15,2013-03-21 09:50:00,
2013-03-21 07:00:00,26.5,24.0,29.93,SSE,147,5.0,22.0,90,0.00,,,0.00,Wunderground v.1.15,2013-03-21 10:00:00,
2013-03-21 07:10:00,26.6,24.1,29.93,South,176,6.0,6.0,90,0.00,,,0.00,Wunderground v.1.15,2013-03-21 10:10:00,
2013-03-21 07:20:00,26.6,23.8,29.93,South,181,5.0,22.0,89,0.00,,,0.00,Wunderground v.1.15,2013-03-21 10:20:00,
2013-03-21 07:30:00,26.6,23.8,29.94,SSE,153,5.0,5.0,89,0.00,,,0.00,Wunderground v.1.15,2013-03-21 10:30:00,
2013-03-21 07:40:00,26.6,23.8,29.94,SSE,163,5.0,22.0,89,0.00,,,0.00,Wunderground v.1.15,2013-03-21 10:40:00,
2013-03-21 07:50:00,26.7,23.9,29.94,South,179,5.0,22.0,89,0.00,,,0.00,Wunderground v.1.15,2013-03-21 10:50:00,
2013-03-21 08:00:00,27.1,24.0,29.95,SE,136,5.0,22.0,88,0.00,,,0.00,Wunderground v.1.15,2013-03-21 11:00:00,
2013-03-21 08:10:00,28.0,24.6,29.95,SE,137,6.0,22.0,87,0.00,,,0.00,Wunderground v.1.15,2013-03-21 11:10:00,
2013-03-21 08:20:00,28.9,25.0,29.95,South,181,7.0,7.0,85,0.00,,,0.00,Wunderground v.1.15,2013-03-21 11:20:00,
2013-03-21 08:30:00,29.6,25.4,29.96,SE,131,7.0,22.0,84,0.00,,,0.00,Wunderground v.1.15,2013-03-21 11:30:00,
2013-03-21 08:40:00,30.2,25.7,29.96,ESE,121,7.0,22.0,83,0.00,,,0.00,Wunderground v.1.15,2013-03-21 11:40:00,
2013-03-21 08:50:00,30.8,26.0,29.97,South,173,8.0,8.0,82,0.00,,,0.00,Wunderground v.1.15,2013-03-21 11:50:00,
2013-03-21 09:00:00,31.3,26.1,29.97,South,177,7.0,7.0,81,0.00,,,0.00,Wunderground v.1.15,2013-03-21 12:00:00,
2013-03-21 09:10:00,31.9,26.4,29.97,East,96,6.0,22.0,80,0.00,,,0.00,Wunderground v.1.15,2013-03-21 12:10:00,
2013-03-21 09:20:00,32.3,26.8,29.98,SSE,151,9.0,9.0,80,0.00,,,0.00,Wunderground v.1.15,2013-03-21 12:20:00,
2013-03-21 09:30:00,32.4,26.6,29.97,SSE,148,9.0,22.0,79,0.00,,,0.00,Wunderground v.1.15,2013-03-21 12:30:00,
2013-03-21 09:40:00,32.9,27.1,29.98,SE,127,9.0,9.0,79,0.00,,,0.00,Wunderground v.1.15,2013-03-21 12:40:00,
2013-03-21 09:50:00,32.0,26.5,29.98,SE,141,8.0,8.0,80,0.00,,,0.00,Wunderground v.1.15,2013-03-21 12:50:00,
2013-03-21 10:00:00,31.5,26.6,29.99,SSE,158,8.0,22.0,82,0.00,,,0.00,Wunderground v.1.15,2013-03-21 13:00:00,
2013-03-21 10:10:00,32.2,27.3,29.99,South,179,9.0,22.0,82,0.00,,,0.00,Wunderground v.1.15,2013-03-21 13:10:00,
2013-03-21 10:20:00,33.2,27.7,29.99,South,183,8.0,22.0,80,0.00,,,0.00,Wunderground v.1.15,2013-03-21 13:20:00,
2013-03-21 10:30:00,34.1,28.0,29.98,SSE,164,9.0,22.0,78,0.00,,,0.00,Wunderground v.1.15,2013-03-21 13:30:00,
2013-03-21 10:40:00,33.6,27.8,29.99,SSE,150,9.0,22.0,79,0.00,,,0.00,Wunderground v.1.15,2013-03-21 13:40:00,
2013-03-21 10:50:00,33.3,27.8,29.98,South,189,9.0,9.0,80,0.00,,,0.00,Wunderground v.1.15,2013-03-21 13:50:00,
2013-03-21 11:00:00,34.7,28.2,29.99,South,172,8.0,22.0,77,0.00,,,0.00,Wunderground v.1.15,2013-03-21 14:00:00,
2013-03-21 11:10:00,35.6,28.5,29.99,SSE,156,9.0,9.0,75,0.00,,,0.00,Wunderground v.1.15,2013-03-21 14:10:00,
2013-03-21 11:20:00,36.3,28.5,29.98,SSW,197,8.0,8.0,73,0.00,,,0.00,Wunderground v.1.15,2013-03-21 14:20:00,
2013-03-21 11:30:00,36.5,28.3,29.98,SSE,165,8.0,22.0,72,0.00,,,0.00,Wunderground v.1.15,2013-03-21 14:30:00,
2013-03-21 11:40:00,37.1,28.6,29.98,South,169,8.0,8.0,71,0.00,,,0.00,Wunderground v.1.15,2013-03-21 14:40:00,
2013-03-21 11:50:00,37.3,28.4,29.98,South,186,10.0,10.0,70,0.00,,,0.00,Wunderground v.1.15,2013-03-21 14:50:00,
2013-03-21 12:00:00,38.3,29.0,29.98,SSE,148,7.0,7.0,69,0.00,,,0.00,Wunderground v.1.15,2013-03-21 15:00:00,
2013-03-21 12:10:00,38.5,28.5,29.98,South,183,8.0,22.0,67,0.00,,,0.00,Wunderground v.1.15,2013-03-21 15:10:00,
2013-03-21 12:20:00,38.9,28.5,29.99,SSE,160,8.0,22.0,66,0.00,,,0.00,Wunderground v.1.15,2013-03-21 15:20:00,
2013-03-21 12:30:00,39.3,28.5,29.99,SSE,155,8.0,22.0,65,0.00,,,0.00,Wunderground v.1.15,2013-03-21 15:30:00,
2013-03-21 12:40:00,39.2,28.0,29.98,SSE,148,10.0,10.0,64,0.00,,,0.00,Wunderground v.1.15,2013-03-21 15:40:00,
2013-03-21 12:50:00,39.7,28.1,29.98,South,174,9.0,9.0,63,0.00,,,0.00,Wunderground v.1.15,2013-03-21 15:50:00,
2013-03-21 13:00:00,40.0,28.0,29.99,SE,134,9.0,9.0,62,0.00,,,0.00,Wunderground v.1.15,2013-03-21 16:00:00,
2013-03-21 13:10:00,40.4,27.6,29.99,SSE,154,8.0,22.0,60,0.00,,,0.00,Wunderground v.1.15,2013-03-21 16:10:00,
2013-03-21 13:20:00,40.2,26.6,29.98,South,177,9.0,9.0,58,0.00,,,0.00,Wunderground v.1.15,2013-03-21 16:20:00,
2013-03-21 13:30:00,40.6,27.0,29.98,SSE,164,8.0,8.0,58,0.00,,,0.00,Wunderground v.1.15,2013-03-21 16:30:00,
2013-03-21 13:40:00,41.1,27.0,29.99,SSE,155,7.0,22.0,57,0.00,,,0.00,Wunderground v.1.15,2013-03-21 16:40:00,
2013-03-21 13:50:00,41.1,27.0,29.98,South,170,7.0,22.0,57,0.00,,,0.00,Wunderground v.1.15,2013-03-21 16:50:00,
2013-03-21 14:00:00,40.5,25.1,29.97,SSE,152,8.0,8.0,54,0.00,,,0.00,Wunderground v.1.15,2013-03-21 17:00:00,
2013-03-21 14:10:00,40.4,25.1,29.96,SSE,156,7.0,7.0,54,0.00,,,0.00,Wunderground v.1.15,2013-03-21 17:10:00,
2013-03-21 14:20:00,40.6,24.8,29.96,ESE,117,7.0,7.0,53,0.00,,,0.00,Wunderground v.1.15,2013-03-21 17:20:00,
2013-03-21 14:30:00,41.0,25.2,29.97,SSE,161,7.0,22.0,53,0.00,,,0.00,Wunderground v.1.15,2013-03-21 17:30:00,
2013-03-21 14:40:00,41.1,24.8,29.97,South,190,8.0,8.0,52,0.00,,,0.00,Wunderground v.1.15,2013-03-21 17:40:00,
2013-03-21 14:50:00,41.2,23.9,29.97,SSE,167,7.0,7.0,50,0.00,,,0.00,Wunderground v.1.15,2013-03-21 17:50:00,
2013-03-21 15:00:00,41.4,24.1,29.97,SE,127,8.0,8.0,50,0.00,,,0.00,Wunderground v.1.15,2013-03-21 18:00:00,
2013-03-21 15:10:00,41.3,24.0,29.97,SE,131,8.0,8.0,50,0.00,,,0.00,Wunderground v.1.15,2013-03-21 18:10:00,
2013-03-21 15:20:00,41.3,24.5,29.95,SE,141,7.0,22.0,51,0.00,,,0.00,Wunderground v.1.15,2013-03-21 18:20:00,
2013-03-21 15:30:00,41.1,24.8,29.95,SSW,208,6.0,22.0,52,0.00,,,0.00,Wunderground v.1.15,2013-03-21 18:30:00,
2013-03-21 15:40:00,41.5,25.2,29.95,ESE,123,5.0,22.0,52,0.00,,,0.00,Wunderground v.1.15,2013-03-21 18:40:00,
2013-03-21 15:50:00,41.7,25.4,29.95,South,181,4.0,22.0,52,0.00,,,0.00,Wunderground v.1.15,2013-03-21 18:50:00,
2013-03-21 16:00:00,41.5,24.7,29.95,SSE,152,5.0,22.0,51,0.00,,,0.00,Wunderground v.1.15,2013-03-21 19:00:00,
2013-03-21 16:10:00,41.2,24.9,29.95,ESE,122,5.0,5.0,52,0.00,,,0.00,Wunderground v.1.15,2013-03-21 19:10:00,
2013-03-21 16:20:00,41.0,24.7,29.95,South,169,4.0,22.0,52,0.00,,,0.00,Wunderground v.1.15,2013-03-21 19:20:00,
2013-03-21 16:30:00,40.7,24.9,29.94,SSE,167,4.0,22.0,53,0.00,,,0.00,Wunderground v.1.15,2013-03-21 19:30:00,
2013-03-21 16:40:00,40.6,24.3,29.93,South,174,4.0,4.0,52,0.00,,,0.00,Wunderground v.1.15,2013-03-21 19:40:00,
2013-03-21 16:50:00,40.6,24.3,29.93,ESE,118,4.0,4.0,52,0.00,,,0.00,Wunderground v.1.15,2013-03-21 19:50:00,
2013-03-21 17:00:00,40.5,24.7,29.93,SSE,160,4.0,22.0,53,0.00,,,0.00,Wunderground v.1.15,2013-03-21 20:00:00,
2013-03-21 17:10:00,40.3,24.5,29.92,SE,124,4.0,22.0,53,0.00,,,0.00,Wunderground v.1.15,2013-03-21 20:10:00,
2013-03-21 17:20:00,40.2,24.4,29.92,ESE,105,4.0,4.0,53,0.00,,,0.00,Wunderground v.1.15,2013-03-21 20:20:00,
2013-03-21 17:30:00,40.2,24.4,29.92,SE,145,2.0,22.0,53,0.00,,,0.00,Wunderground v.1.15,2013-03-21 20:30:00,
2013-03-21 17:40:00,40.3,25.0,29.92,SSE,150,2.0,22.0,54,0.00,,,0.00,Wunderground v.1.15,2013-03-21 20:40:00,
2013-03-21 17:50:00,40.1,25.2,29.92,ESE,117,2.0,22.0,55,0.00,,,0.00,Wunderground v.1.15,2013-03-21 20:50:00,
2013-03-21 18:00:00,40.1,24.8,29.92,ESE,104,2.0,2.0,54,0.00,,,0.00,Wunderground v.1.15,2013-03-21 21:00:00,
2013-03-21 18:10:00,39.8,25.4,29.92,East,90,3.0,22.0,56,0.00,,,0.00,Wunderground v.1.15,2013-03-21 21:10:00,
2013-03-21 18:20:00,39.5,25.1,29.92,SE,131,4.0,4.0,56,0.00,,,0.00,Wunderground v.1.15,2013-03-21 21:20:00,
2013-03-21 18:30:00,39.3,25.7,29.90,ESE,111,3.0,3.0,58,0.00,,,0.00,Wunderground v.1.15,2013-03-21 21:30:00,
2013-03-21 18:40:00,39.0,25.5,29.90,East,92,2.0,2.0,58,0.00,,,0.00,Wunderground v.1.15,2013-03-21 21:40:00,
2013-03-21 18:50:00,38.7,25.2,29.91,ENE,57,1.0,22.0,58,0.00,,,0.00,Wunderground v.1.15,2013-03-21 21:50:00,
2013-03-21 19:00:00,38.3,25.2,29.90,East,91,3.0,22.0,59,0.00,,,0.00,Wunderground v.1.15,2013-03-21 22:00:00,
2013-03-21 19:10:00,37.3,23.4,29.90,ENE,67,4.0,4.0,57,0.00,,,0.00,Wunderground v.1.15,2013-03-21 22:10:00,
2013-03-21 19:20:00,36.8,23.4,29.90,NE,54,4.0,4.0,58,0.00,,,0.00,Wunderground v.1.15,2013-03-21 22:20:00,
2013-03-21 19:30:00,36.5,23.1,29.90,East,98,3.0,3.0,58,0.00,,,0.00,Wunderground v.1.15,2013-03-21 22:30:00,
2013-03-21 19:40:00,36.2,23.2,29.89,East,83,2.0,22.0,59,0.00,,,0.00,Wunderground v.1.15,2013-03-21 22:40:00,
2013-03-21 19:50:00,35.9,23.4,29.89,East,94,2.0,22.0,60,0.00,,,0.00,Wunderground v.1.15,2013-03-21 22:50:00,
2013-03-21 20:00:00,35.7,23.6,29.90,ESE,111,2.0,2.0,61,0.00,,,0.00,Wunderground v.1.15,2013-03-21 23:00:00,
2013-03-21 20:10:00,35.5,23.8,29.90,NE,56,2.0,2.0,62,0.00,,,0.00,Wunderground v.1.15,2013-03-21 23:10:00,
2013-03-21 20:20:00,35.4,23.7,29.90,ENE,64,2.0,22.0,62,0.00,,,0.00,Wunderground v.1.15,2013-03-21 23:20:00,
2013-03-21 20:30:00,35.2,23.9,29.89,East,92,2.0,22.0,63,0.00,,,0.00,Wunderground v.1.15,2013-03-21 23:30:00,
2013-03-21 20:40:00,35.0,24.4,29.88,ENE,58,3.0,22.0,65,0.00,,,0.00,Wunderground v.1.15,2013-03-21 23:40:00,
2013-03-21 20:50:00,34.9,24.7,29.88,East,91,2.0,2.0,66,0.00,,,0.00,Wunderground v.1.15,2013-03-21 23:50:00,
2013-03-21 21:00:00,34.7,25.2,29.87,East,86,3.0,22.0,68,0.00,,,0.00,Wunderground v.1.15,2013-03-22 00:00:00,
2013-03-21 21:10:00,34.7,25.2,29.86,East,82,2.0,2.0,68,0.00,,,0.00,Wunderground v.1.15,2013-03-22 00:10:00,
2013-03-21 21:20:00,34.5,25.7,29.86,ENE,68,3.0,3.0,70,0.00,,,0.00,Wunderground v.1.15,2013-03-22 00:20:00,
2013-03-21 21:30:00,34.4,26.6,29.86,NE,48,3.0,22.0,73,0.00,,,0.00,Wunderground v.1.15,2013-03-22 00:30:00,
2013-03-21 21:40:00,34.3,27.5,29.85,East,88,4.0,4.0,76,0.00,,,0.00,Wunderground v.1.15,2013-03-22 00:40:00,
2013-03-21 21:50:00,34.2,27.7,29.84,East,80,3.0,22.0,77,0.00,,,0.00,Wunderground v.1.15,2013-03-22 00:50:00,
2013-03-21 22:00:00,34.1,28.0,29.83,NE,46,3.0,22.0,78,0.00,,,0.00,Wunderground v.1.15,2013-03-22 01:00:00,
2013-03-21 22:10:00,34.1,28.0,29.83,East,85,3.0,3.0,78,0.00,,,0.00,Wunderground v.1.15,2013-03-22 01:10:00,
2013-03-21 22:20:00,34.1,28.3,29.83,East,89,4.0,22.0,79,0.00,,,0.00,Wunderground v.1.15,2013-03-22 01:20:00,
2013-03-21 22:30:00,33.9,28.1,29.81,East,96,3.0,22.0,79,0.00,,,0.00,Wunderground v.1.15,2013-03-22 01:30:00,
2013-03-21 22:40:00,33.7,27.9,29.80,East,92,2.0,22.0,79,0.00,,,0.00,Wunderground v.1.15,2013-03-22 01:40:00,
2013-03-21 22:50:00,33.8,28.0,29.80,East,97,2.0,22.0,79,0.00,,,0.00,Wunderground v.1.15,2013-03-22 01:50:00,
2013-03-21 23:00:00,33.8,28.0,29.79,NE,53,3.0,22.0,79,0.00,,,0.00,Wunderground v.1.15,2013-03-22 02:00:00,
2013-03-21 23:10:00,33.7,27.9,29.78,East,82,4.0,4.0,79,0.00,,,0.00,Wunderground v.1.15,2013-03-22 02:10:00,
2013-03-21 23:20:00,33.5,27.7,29.77,East,94,3.0,3.0,79,0.00,,,0.00,Wunderground v.1.15,2013-03-22 02:20:00,
2013-03-21 23:30:00,33.4,27.9,29.77,East,84,4.0,4.0,80,0.00,,,0.00,Wunderground v.1.15,2013-03-22 02:30:00,
2013-03-21 23:40:00,33.0,28.1,29.77,NE,56,2.0,2.0,82,0.00,,,0.00,Wunderground v.1.15,2013-03-22 02:40:00,
2013-03-21 23:50:00,32.6,28.3,29.76,NE,37,3.0,3.0,84,0.00,,,0.00,Wunderground v.1.15,2013-03-22 02:50:00,